Mazagao, Brazil
Current Conditions -  °F | °C
As of 10:00 AM on Saturday 25 Oct 2014 (Local Time) from SBMQ Reporting Station
Few Clouds Few Clouds  
Wind Chill: 91°   Ceiling: Unl
Heat Index: 100°   Visibility: 6mi
Dew Point: 73°   Wind: 17mph
Humidity: 55%   Direction: 80°E
Pressure: 29.88"   Gusts: NA
Location:  0.12°S, 51.29°W
Report Text: SBMQ 251300Z 08015KT 9999 FEW020 33/23 Q1012
Loading
Personal Weather Stations






























Interactive Weather Map
Tropical Storm Tracking
New forecast layout! Learn more

10-Day Weather Forecast

Advertisements
Track Severe Weather on mobile